Time;durP1;ratioP1;P1;durP2;ratioP2;P2;SDS_P1;SDS_P2;PMS_P1;PMS_P2;Temp;Humidity;BMP_temperature;BMP_pressure;BME280_temperature;BME280_humidity;BME280_pressure;Samples;Min_cycle;Max_cycle;Signal;HPM_P1;HPM_P2
2020/12/08 00:00:26;;;;;;;;;;;;;;;7.25;68.90;97334.55;1773845;79;24637;-84
2020/12/08 00:10:10;;;;;;;;;;;;;;;7.20;68.68;97341.87;1720745;80;21662;-84
2020/12/08 00:12:45;;;;;;;;;;;;;;;7.18;68.63;97338.08;1731311;82;26131;-84
2020/12/08 00:15:38;;;;;;;;;;;;;;;7.18;68.62;97341.14;1728562;82;24715;-84
2020/12/08 00:18:18;;;;;;;;;;;;;;;7.20;68.57;97337.47;1730615;82;20597;-84
2020/12/08 00:21:10;;;;;;;;;;;;;;;7.24;68.56;97338.09;1732274;82;25562;-84
2020/12/08 00:23:56;;;;;;;;;;;;;;;7.22;68.51;97338.67;1733407;82;22143;-84
2020/12/08 00:26:48;;;;;;;;;;;;;;;7.17;68.46;97333.81;1732849;82;26274;-85
2020/12/08 00:29:34;;;;;;;;;;;;;;;7.14;68.41;97341.85;1732311;82;25538;-84
2020/12/08 00:32:27;;;;;;;;;;;;;;;7.13;68.35;97345.39;1731289;82;20329;-84
2020/12/08 00:35:14;;;;;;;;;;;;;;;7.17;68.32;97342.08;1705843;82;24660;-84
2020/12/08 00:38:04;;;;;;;;;;;;;;;7.14;68.28;97341.85;1731533;82;22143;-85
2020/12/08 00:40:50;;;;;;;;;;;;;;;6.91;68.24;97344.83;1730460;82;26147;-85
2020/12/08 00:43:36;;;;;;;;;;;;;;;6.43;68.18;97345.73;1708333;82;24315;-85
2020/12/08 00:46:23;;;;;;;;;;;;;;;5.76;68.06;97355.55;1731014;82;20470;-84
2020/12/08 00:49:12;;;;;;;;;;;;;;;5.25;67.92;97357.25;1700121;82;24632;-85
2020/12/08 00:51:58;;;;;;;;;;;;;;;4.86;67.82;97360.66;1707810;82;22423;-84
2020/12/08 00:57:35;;;;;;;;;;;;;;;4.36;67.79;97362.58;1704425;82;24482;-85
2020/12/08 01:00:24;;;;;;;;;;;;;;;4.34;67.80;97362.66;1730377;82;20302;-84
2020/12/08 01:03:14;;;;;;;;;;;;;;;4.27;67.90;97367.84;1732358;82;24760;-84
2020/12/08 01:06:01;;;;;;;;;;;;;;;4.19;67.99;97380.45;1708709;82;21958;-84
2020/12/08 01:08:49;;;;;;;;;;;;;;;4.26;68.08;97377.83;1731678;82;26081;-84
2020/12/08 01:11:36;;;;;;;;;;;;;;;4.21;68.19;97385.05;1748545;79;24160;-84
2020/12/08 01:14:24;;;;;;;;;;;;;;;4.09;68.31;97391.80;1776776;79;20323;-84
2020/12/08 01:17:10;;;;;;;;;;;;;;;3.90;68.38;97391.72;1745810;80;25565;-84
2020/12/08 01:19:48;;;;;;;;;;;;;;;3.69;68.46;97392.08;1780447;79;22138;-84
2020/12/08 01:22:34;;;;;;;;;;;;;;;3.54;68.54;97387.80;1769330;79;26262;-84
2020/12/08 01:25:21;;;;;;;;;;;;;;;3.42;68.61;97384.63;1770224;79;24730;-84
2020/12/08 01:31:23;;;;;;;;;;;;;;;3.28;68.80;97385.41;1771900;79;20677;-88
2020/12/08 01:34:10;;;;;;;;;;;;;;;3.25;68.94;97386.90;1771298;79;22357;-83
2020/12/08 01:37:01;;;;;;;;;;;;;;;3.23;69.05;97382.27;1771928;79;26103;-84
2020/12/08 01:39:47;;;;;;;;;;;;;;;3.24;69.17;97381.80;1773926;79;24822;-83
2020/12/08 01:42:36;;;;;;;;;;;;;;;3.19;69.31;97376.91;1770080;79;20288;-84
2020/12/08 01:45:22;;;;;;;;;;;;;;;3.16;69.45;97373.67;1779853;79;24744;-83
2020/12/08 01:48:09;;;;;;;;;;;;;;;3.14;69.54;97366.45;1768886;79;22171;-84
2020/12/08 01:50:56;;;;;;;;;;;;;;;3.09;69.68;97367.17;1773971;79;26171;-83
2020/12/08 01:53:46;;;;;;;;;;;;;;;3.10;69.78;97371.43;1770264;80;25657;-84
2020/12/08 01:56:32;;;;;;;;;;;;;;;3.13;69.90;97368.66;1739945;81;20419;-84
2020/12/08 01:59:19;;;;;;;;;;;;;;;3.11;70.01;97357.11;1734888;82;24599;-84
2020/12/08 02:02:05;;;;;;;;;;;;;;;3.13;70.12;97366.08;1740061;82;22241;-84
2020/12/08 02:04:51;;;;;;;;;;;;;;;3.16;70.22;97362.88;1722563;82;26147;-84
2020/12/08 02:07:37;;;;;;;;;;;;;;;3.12;70.34;97357.94;1719439;82;24590;-84
2020/12/08 02:10:24;;;;;;;;;;;;;;;3.13;70.41;97362.20;1728165;82;20322;-84
2020/12/08 02:13:11;;;;;;;;;;;;;;;3.16;70.52;97358.16;1724791;82;24839;-84
2020/12/08 02:15:57;;;;;;;;;;;;;;;3.24;70.62;97360.66;1714734;82;22205;-84
2020/12/08 02:18:44;;;;;;;;;;;;;;;3.38;70.71;97352.12;1721288;82;26199;-84
2020/12/08 02:21:30;;;;;;;;;;;;;;;3.58;70.84;97362.13;1719159;82;24590;-83
2020/12/08 02:24:19;;;;;;;;;;;;;;;3.70;70.95;97356.23;1720600;82;20283;-84
2020/12/08 02:27:06;;;;;;;;;;;;;;;3.73;71.04;97367.67;1698723;82;25402;-84
2020/12/08 02:29:52;;;;;;;;;;;;;;;3.52;71.13;97359.89;1727459;82;22036;-84
2020/12/08 02:32:38;;;;;;;;;;;;;;;3.30;71.15;97369.36;1718123;82;26269;-84
2020/12/08 02:35:26;;;;;;;;;;;;;;;3.16;71.15;97374.51;1718934;82;24572;-84
2020/12/08 02:38:12;;;;;;;;;;;;;;;3.11;71.18;97376.49;1691233;84;20261;-84
2020/12/08 02:40:58;;;;;;;;;;;;;;;3.21;71.21;97380.25;1688001;84;24709;-84
2020/12/08 02:43:46;;;;;;;;;;;;;;;3.23;71.27;97383.55;1706925;83;22381;-84
2020/12/08 02:46:34;;;;;;;;;;;;;;;3.08;71.35;97386.19;1744106;81;26017;-84
2020/12/08 02:49:20;;;;;;;;;;;;;;;2.93;71.38;97388.72;1748595;82;25495;-84
2020/12/08 02:52:08;;;;;;;;;;;;;;;2.88;71.39;97385.56;1721868;82;20305;-84
2020/12/08 02:54:57;;;;;;;;;;;;;;;2.80;71.43;97384.31;1745756;81;24739;-84
2020/12/08 02:57:43;;;;;;;;;;;;;;;2.76;71.47;97387.98;1690067;83;22113;-84
2020/12/08 03:00:30;;;;;;;;;;;;;;;2.78;71.53;97393.91;1721056;82;26109;-84
2020/12/08 03:03:18;;;;;;;;;;;;;;;2.77;71.58;97384.04;1752870;80;25322;-84
2020/12/08 03:06:03;;;;;;;;;;;;;;;2.82;71.62;97382.03;1745541;80;20272;-84
2020/12/08 03:08:50;;;;;;;;;;;;;;;2.87;71.70;97384.35;1747176;80;24657;-84
2020/12/08 03:11:41;;;;;;;;;;;;;;;2.96;71.77;97386.41;1746406;82;23553;-84
2020/12/08 03:14:27;;;;;;;;;;;;;;;3.09;71.85;97390.44;1746111;82;26208;-84
2020/12/08 03:17:13;;;;;;;;;;;;;;;3.18;71.93;97396.37;1747344;80;24912;-83
2020/12/08 03:19:59;;;;;;;;;;;;;;;3.19;71.96;97395.00;1748358;82;20267;-84
2020/12/08 03:22:48;;;;;;;;;;;;;;;3.27;72.02;97397.16;1746035;82;24697;-83
2020/12/08 03:25:35;;;;;;;;;;;;;;;3.35;72.05;97401.41;1748853;81;22188;-84
2020/12/08 03:28:21;;;;;;;;;;;;;;;3.31;72.10;97404.64;1717234;82;26158;-84
2020/12/08 03:31:10;;;;;;;;;;;;;;;3.31;72.12;97402.52;1751403;82;24617;-84
2020/12/08 03:33:57;;;;;;;;;;;;;;;3.22;72.14;97402.56;1748631;81;20256;-84
2020/12/08 03:36:43;;;;;;;;;;;;;;;3.07;72.12;97400.02;1746366;81;24696;-84
2020/12/08 03:39:29;;;;;;;;;;;;;;;2.86;72.13;97402.05;1744930;82;22891;-84
2020/12/08 03:42:15;;;;;;;;;;;;;;;2.72;72.11;97402.83;1743199;82;26985;-84
2020/12/08 03:44:49;;;;;;;;;;;;;;;2.55;72.09;97395.17;1742987;81;26053;-84
2020/12/08 03:47:36;;;;;;;;;;;;;;;2.41;72.08;97392.48;1655707;85;20305;-84
2020/12/08 03:50:23;;;;;;;;;;;;;;;2.33;72.08;97395.95;1696807;84;24669;-84
2020/12/08 03:53:10;;;;;;;;;;;;;;;2.24;72.09;97395.97;1688873;84;22236;-84
2020/12/08 03:55:58;;;;;;;;;;;;;;;2.15;72.12;97402.91;1685433;84;26202;-84
2020/12/08 03:58:45;;;;;;;;;;;;;;;2.03;72.16;97406.12;1696606;84;25417;-83
2020/12/08 04:01:33;;;;;;;;;;;;;;;1.96;72.21;97406.93;1680822;83;20539;-84
2020/12/08 04:04:21;;;;;;;;;;;;;;;1.94;72.26;97415.20;1677153;85;25508;-84
2020/12/08 04:07:08;;;;;;;;;;;;;;;1.93;72.31;97405.78;1707210;82;22487;-83
2020/12/08 04:09:55;;;;;;;;;;;;;;;1.92;72.38;97404.11;1697554;84;26947;-84
2020/12/08 04:12:44;;;;;;;;;;;;;;;1.98;72.46;97411.53;1679549;83;24293;-84
2020/12/08 04:15:33;;;;;;;;;;;;;;;2.15;72.53;97403.37;1676753;85;20273;-83
2020/12/08 04:18:20;;;;;;;;;;;;;;;2.20;72.62;97406.53;1658453;85;24744;-84
2020/12/08 04:21:06;;;;;;;;;;;;;;;2.20;72.69;97409.12;1677065;85;22187;-84
2020/12/08 04:23:54;;;;;;;;;;;;;;;2.22;72.74;97417.17;1677846;85;26141;-84
2020/12/08 04:26:41;;;;;;;;;;;;;;;2.24;72.80;97408.03;1680357;85;24675;-83
2020/12/08 04:29:26;;;;;;;;;;;;;;;2.10;72.85;97405.74;1676731;85;20285;-84
2020/12/08 04:32:13;;;;;;;;;;;;;;;1.92;72.87;97414.43;1674356;85;24692;-84
2020/12/08 04:34:59;;;;;;;;;;;;;;;1.86;72.87;97414.73;1680711;85;22048;-84
2020/12/08 04:37:45;;;;;;;;;;;;;;;1.88;72.86;97412.92;1687944;84;26101;-84
2020/12/08 04:40:32;;;;;;;;;;;;;;;1.95;72.89;97409.13;1704342;83;25662;-84
2020/12/08 04:43:19;;;;;;;;;;;;;;;1.99;72.95;97405.47;1674647;84;20378;-84
2020/12/08 04:46:07;;;;;;;;;;;;;;;1.89;72.99;97404.28;1757919;81;25595;-84
2020/12/08 04:48:53;;;;;;;;;;;;;;;1.82;73.02;97402.92;1754105;81;22118;-84
2020/12/08 04:51:41;;;;;;;;;;;;;;;1.81;73.03;97401.70;1749437;81;26358;-84
2020/12/08 04:54:27;;;;;;;;;;;;;;;1.83;73.05;97399.44;1747256;81;24486;-83
2020/12/08 04:57:15;;;;;;;;;;;;;;;1.94;73.10;97394.55;1750875;81;20347;-84
2020/12/08 05:00:02;;;;;;;;;;;;;;;2.08;73.18;97389.95;1757075;81;24683;-84
2020/12/08 05:02:52;;;;;;;;;;;;;;;2.20;73.25;97382.85;1743367;81;22865;-83
2020/12/08 05:05:39;;;;;;;;;;;;;;;2.26;73.34;97390.27;1749150;81;27063;-83
2020/12/08 05:08:25;;;;;;;;;;;;;;;2.36;73.40;97394.02;1746238;81;24777;-83
2020/12/08 05:11:12;;;;;;;;;;;;;;;2.56;73.49;97394.26;1749702;81;20263;-83
2020/12/08 05:13:59;;;;;;;;;;;;;;;2.76;73.57;97387.98;1727245;81;24702;-83
2020/12/08 05:16:45;;;;;;;;;;;;;;;2.91;73.67;97389.25;1729862;81;22830;-83
2020/12/08 05:19:32;;;;;;;;;;;;;;;3.12;73.76;97392.84;1696857;84;26125;-83
2020/12/08 05:22:19;;;;;;;;;;;;;;;3.28;73.86;97389.30;1687882;83;24643;-83
2020/12/08 05:25:08;;;;;;;;;;;;;;;3.46;73.92;97389.98;1690157;84;20384;-84
2020/12/08 05:27:55;;;;;;;;;;;;;;;3.56;73.98;97385.11;1757160;81;24712;-84
2020/12/08 05:30:42;;;;;;;;;;;;;;;3.67;74.03;97388.73;1729630;81;21966;-84
2020/12/08 05:33:30;;;;;;;;;;;;;;;3.84;74.07;97397.25;1753338;81;26120;-83
2020/12/08 05:36:16;;;;;;;;;;;;;;;3.91;74.13;97392.92;1744440;81;24407;-83
2020/12/08 05:39:02;;;;;;;;;;;;;;;3.92;74.16;97399.77;1757315;81;20483;-83
2020/12/08 05:41:48;;;;;;;;;;;;;;;3.91;74.16;97404.57;1753305;81;24669;-84
2020/12/08 05:44:34;;;;;;;;;;;;;;;3.87;74.12;97403.55;1754638;81;22332;-84
2020/12/08 05:47:20;;;;;;;;;;;;;;;3.74;74.08;97403.44;1750407;80;26097;-84
2020/12/08 05:50:09;;;;;;;;;;;;;;;3.67;74.04;97422.36;1755556;81;24637;-84
2020/12/08 05:52:55;;;;;;;;;;;;;;;3.78;74.00;97429.04;1750161;81;20571;-84
2020/12/08 05:55:43;;;;;;;;;;;;;;;3.85;74.00;97439.03;1748634;81;24745;-84
2020/12/08 05:58:31;;;;;;;;;;;;;;;3.93;73.99;97444.61;1755778;81;22147;-84
2020/12/08 06:01:18;;;;;;;;;;;;;;;3.86;74.00;97444.12;1753153;81;26172;-83
2020/12/08 06:04:05;;;;;;;;;;;;;;;3.76;73.96;97452.87;1757785;81;24633;-84
2020/12/08 06:06:57;;;;;;;;;;;;;;;3.47;73.94;97451.61;1747510;81;20281;-84
2020/12/08 06:09:43;;;;;;;;;;;;;;;3.22;73.90;97454.73;1749407;81;24914;-84
2020/12/08 06:12:29;;;;;;;;;;;;;;;2.83;73.82;97447.45;1754977;81;22132;-84
2020/12/08 06:15:16;;;;;;;;;;;;;;;2.48;73.72;97446.30;1751410;81;26177;-83
2020/12/08 06:18:05;;;;;;;;;;;;;;;2.24;73.62;97462.23;1748599;81;24864;-84
2020/12/08 06:20:50;;;;;;;;;;;;;;;2.01;73.54;97462.16;1755715;81;20244;-84
2020/12/08 06:23:37;;;;;;;;;;;;;;;1.96;73.49;97474.46;1737969;81;24725;-84
2020/12/08 06:26:23;;;;;;;;;;;;;;;2.03;73.48;97480.50;1753600;81;23748;-84
2020/12/08 06:29:10;;;;;;;;;;;;;;;2.09;73.50;97487.94;1750579;81;26122;-84
2020/12/08 06:31:56;;;;;;;;;;;;;;;2.00;73.54;97492.73;1745463;81;24777;-84
2020/12/08 06:34:44;;;;;;;;;;;;;;;1.88;73.57;97494.19;1743637;81;20395;-84
2020/12/08 06:37:30;;;;;;;;;;;;;;;1.68;73.61;97497.77;1747840;80;24681;-84
2020/12/08 06:40:18;;;;;;;;;;;;;;;1.57;73.60;97497.91;1749289;80;22460;-85
2020/12/08 06:43:05;;;;;;;;;;;;;;;1.50;73.61;97497.82;1745922;81;27224;-85
2020/12/08 06:45:51;;;;;;;;;;;;;;;1.44;73.62;97499.41;1730226;81;24597;-85
2020/12/08 06:48:39;;;;;;;;;;;;;;;1.37;73.65;97498.86;1749424;81;20287;-84
2020/12/08 06:51:26;;;;;;;;;;;;;;;1.32;73.66;97502.11;1754795;81;24834;-84
2020/12/08 06:54:13;;;;;;;;;;;;;;;1.32;73.69;97508.55;1744143;81;22196;-84
2020/12/08 06:57:00;;;;;;;;;;;;;;;1.44;73.72;97511.84;1733973;81;28524;-85
2020/12/08 06:59:47;;;;;;;;;;;;;;;1.51;73.78;97508.06;1751402;81;24631;-84
2020/12/08 07:02:33;;;;;;;;;;;;;;;1.48;73.84;97509.48;1740396;81;20358;-85
2020/12/08 07:05:22;;;;;;;;;;;;;;;1.49;73.88;97518.89;1733275;81;24191;-84
2020/12/08 07:08:08;;;;;;;;;;;;;;;1.57;73.93;97524.98;1691983;84;22231;-84
2020/12/08 07:10:56;;;;;;;;;;;;;;;1.64;73.95;97525.05;1685810;83;26161;-84
2020/12/08 07:13:42;;;;;;;;;;;;;;;1.62;74.02;97525.59;1716892;83;25395;-84
2020/12/08 07:16:33;;;;;;;;;;;;;;;1.61;74.05;97531.20;1689768;83;20824;-84
2020/12/08 07:19:20;;;;;;;;;;;;;;;1.70;74.11;97529.91;1703303;83;24859;-83
2020/12/08 07:22:08;;;;;;;;;;;;;;;1.50;74.15;97519.73;1679441;84;22153;-84
2020/12/08 07:24:54;;;;;;;;;;;;;;;1.31;74.17;97515.90;1683260;84;26158;-84
2020/12/08 07:27:40;;;;;;;;;;;;;;;1.20;74.18;97521.56;1702662;83;24872;-84
2020/12/08 07:30:27;;;;;;;;;;;;;;;1.18;74.17;97520.82;1679629;84;20359;-83
2020/12/08 07:33:14;;;;;;;;;;;;;;;1.15;74.19;97520.11;1715473;83;24968;-84
2020/12/08 07:36:01;;;;;;;;;;;;;;;1.18;74.22;97525.13;1686955;84;22136;-84
2020/12/08 07:38:50;;;;;;;;;;;;;;;1.26;74.27;97524.30;1702628;83;26137;-84
2020/12/08 07:41:35;;;;;;;;;;;;;;;1.35;74.35;97525.18;1721549;83;24620;-84
2020/12/08 07:44:27;;;;;;;;;;;;;;;1.45;74.40;97534.59;1724515;82;20179;-84
2020/12/08 07:47:13;;;;;;;;;;;;;;;1.66;74.50;97530.52;1712583;82;24892;-83
2020/12/08 07:50:02;;;;;;;;;;;;;;;1.81;74.58;97536.66;1718207;83;22995;-83
2020/12/08 07:52:49;;;;;;;;;;;;;;;1.89;74.67;97546.16;1705351;83;26371;-84
2020/12/08 07:55:37;;;;;;;;;;;;;;;1.85;74.74;97548.98;1691065;83;24617;-84
2020/12/08 07:58:24;;;;;;;;;;;;;;;1.77;74.81;97549.34;1717049;83;20514;-84
2020/12/08 08:01:12;;;;;;;;;;;;;;;1.72;74.85;97546.15;1713630;83;24752;-83
2020/12/08 08:03:59;;;;;;;;;;;;;;;1.73;74.88;97543.12;1714601;83;22128;-83
2020/12/08 08:06:49;;;;;;;;;;;;;;;1.65;74.91;97537.03;1678990;83;25949;-83
2020/12/08 08:09:35;;;;;;;;;;;;;;;1.65;74.95;97537.88;1708263;83;24652;-83
2020/12/08 08:12:21;;;;;;;;;;;;;;;1.64;75.01;97538.77;1722153;83;20284;-84
2020/12/08 08:15:11;;;;;;;;;;;;;;;1.66;75.07;97541.29;1712185;83;24760;-84
2020/12/08 08:18:01;;;;;;;;;;;;;;;1.68;75.10;97535.61;1713910;83;21517;-84
2020/12/08 08:20:49;;;;;;;;;;;;;;;1.72;75.17;97533.25;1709255;83;26986;-84
2020/12/08 08:23:36;;;;;;;;;;;;;;;1.84;75.22;97542.14;1716108;83;25546;-83
2020/12/08 08:26:23;;;;;;;;;;;;;;;1.94;75.28;97542.90;1718708;83;20322;-84
2020/12/08 08:29:00;;;;;;;;;;;;;;;1.94;75.35;97524.84;1712410;83;25670;-84
2020/12/08 08:31:47;;;;;;;;;;;;;;;1.88;75.39;97517.41;1716122;83;23093;-84
2020/12/08 08:34:35;;;;;;;;;;;;;;;2.15;75.43;97538.41;1722766;83;26142;-85
2020/12/08 08:37:23;;;;;;;;;;;;;;;2.46;75.50;97567.35;1713784;83;24596;-85
2020/12/08 08:40:09;;;;;;;;;;;;;;;2.52;75.61;97569.17;1680042;83;20585;-84
2020/12/08 08:42:55;;;;;;;;;;;;;;;2.45;75.66;97560.09;1656475;86;24778;-84
2020/12/08 08:45:46;;;;;;;;;;;;;;;2.31;75.71;97565.11;1650301;86;22984;-84
2020/12/08 08:48:33;;;;;;;;;;;;;;;2.22;75.72;97558.30;1655081;86;26195;-84
2020/12/08 08:51:21;;;;;;;;;;;;;;;2.12;75.74;97560.96;1676309;85;24705;-84
2020/12/08 08:54:07;;;;;;;;;;;;;;;2.01;75.73;97562.33;1685124;84;20620;-83
2020/12/08 08:56:59;;;;;;;;;;;;;;;2.08;75.73;97562.39;1651973;86;24814;-83
2020/12/08 08:59:47;;;;;;;;;;;;;;;2.09;75.74;97559.36;1660293;85;22457;-83
2020/12/08 09:02:34;;;;;;;;;;;;;;;2.21;75.78;97569.52;1656672;86;26083;-83
2020/12/08 09:05:24;;;;;;;;;;;;;;;2.39;75.84;97569.89;1712673;82;24590;-83
2020/12/08 09:08:10;;;;;;;;;;;;;;;2.52;75.88;97568.33;1715750;82;20571;-83
2020/12/08 09:10:58;;;;;;;;;;;;;;;2.63;75.97;97565.20;1712928;82;24650;-83
2020/12/08 09:13:49;;;;;;;;;;;;;;;2.82;76.01;97565.46;1715569;82;22307;-83
2020/12/08 09:16:35;;;;;;;;;;;;;;;2.95;76.07;97569.05;1724133;82;26139;-83
2020/12/08 09:19:22;;;;;;;;;;;;;;;3.12;76.10;97563.44;1722491;82;24770;-82
2020/12/08 09:22:10;;;;;;;;;;;;;;;3.36;76.16;97559.53;1682684;83;20304;-83
2020/12/08 09:24:58;;;;;;;;;;;;;;;3.48;76.19;97560.16;1724835;81;24647;-83
2020/12/08 09:27:45;;;;;;;;;;;;;;;3.50;76.24;97567.80;1722199;82;22233;-83
2020/12/08 09:30:21;;;;;;;;;;;;;;;3.42;76.25;97570.83;1699270;82;26146;-83
2020/12/08 09:33:10;;;;;;;;;;;;;;;3.25;76.25;97572.20;1716414;82;25164;-84
2020/12/08 09:35:56;;;;;;;;;;;;;;;3.11;76.24;97570.84;1723615;82;20329;-83
2020/12/08 09:38:43;;;;;;;;;;;;;;;2.99;76.19;97567.16;1724535;81;24774;-86
2020/12/08 09:41:29;;;;;;;;;;;;;;;2.95;76.17;97563.88;1748278;81;22144;-83
2020/12/08 09:44:16;;;;;;;;;;;;;;;2.92;76.15;97567.09;1751401;81;27056;-83
2020/12/08 09:47:02;;;;;;;;;;;;;;;2.87;76.14;97564.77;1730267;81;24507;-85
2020/12/08 09:49:49;;;;;;;;;;;;;;;2.83;76.17;97573.59;1693346;82;20332;-84
2020/12/08 09:52:37;;;;;;;;;;;;;;;2.80;76.15;97569.86;1707142;83;25625;-84
2020/12/08 09:55:27;;;;;;;;;;;;;;;2.81;76.19;97577.16;1691063;84;21964;-83
2020/12/08 09:58:13;;;;;;;;;;;;;;;2.82;76.20;97574.96;1712952;83;27035;-85
2020/12/08 10:01:03;;;;;;;;;;;;;;;2.77;76.22;97567.45;1703889;82;24452;-84
2020/12/08 10:03:53;;;;;;;;;;;;;;;2.74;76.26;97567.59;1716432;83;20312;-83
2020/12/08 10:06:42;;;;;;;;;;;;;;;2.71;76.29;97563.90;1702164;83;24729;-83
2020/12/08 10:09:30;;;;;;;;;;;;;;;2.69;76.34;97569.59;1711656;83;23018;-84
2020/12/08 10:12:18;;;;;;;;;;;;;;;2.70;76.37;97566.55;1721864;83;26127;-84
2020/12/08 10:15:05;;;;;;;;;;;;;;;2.76;76.43;97576.57;1663740;83;24584;-83
2020/12/08 10:17:53;;;;;;;;;;;;;;;2.82;76.49;97578.38;1699121;83;20316;-83
2020/12/08 10:20:39;;;;;;;;;;;;;;;2.84;76.56;97573.11;1718785;83;25617;-84
2020/12/08 10:23:26;;;;;;;;;;;;;;;2.88;76.60;97565.14;1691057;83;22246;-84
2020/12/08 10:26:13;;;;;;;;;;;;;;;2.95;76.67;97560.00;1688410;83;25874;-84
2020/12/08 10:29:01;;;;;;;;;;;;;;;3.04;76.71;97554.82;1710907;83;24796;-84
2020/12/08 10:31:47;;;;;;;;;;;;;;;3.19;76.77;97552.69;1713485;83;20345;-84
2020/12/08 10:34:33;;;;;;;;;;;;;;;3.38;76.83;97546.52;1717279;83;24738;-84
2020/12/08 10:37:19;;;;;;;;;;;;;;;3.56;76.88;97548.91;1708747;82;22989;-84
2020/12/08 10:40:07;;;;;;;;;;;;;;;3.73;76.93;97544.08;1712285;82;26192;-83
2020/12/08 10:42:53;;;;;;;;;;;;;;;3.92;76.97;97541.29;1722052;82;24798;-84
2020/12/08 10:45:41;;;;;;;;;;;;;;;4.12;77.02;97539.66;1691689;83;20486;-83
2020/12/08 10:48:28;;;;;;;;;;;;;;;4.26;77.07;97542.27;1758536;80;24695;-83
2020/12/08 10:51:15;;;;;;;;;;;;;;;4.40;77.09;97546.19;1741956;81;22260;-84
2020/12/08 10:54:02;;;;;;;;;;;;;;;4.38;77.13;97537.66;1721364;81;26318;-84
2020/12/08 10:56:37;;;;;;;;;;;;;;;4.15;77.15;97535.59;1751799;80;24782;-83
2020/12/08 10:59:26;;;;;;;;;;;;;;;3.94;77.14;97532.50;1746430;80;20463;-82
2020/12/08 11:02:14;;;;;;;;;;;;;;;3.83;77.08;97538.75;1748670;80;25752;-83
2020/12/08 11:05:07;;;;;;;;;;;;;;;3.82;77.03;97542.73;1762256;80;21442;-83
2020/12/08 11:07:54;;;;;;;;;;;;;;;3.89;76.99;97544.03;1760027;80;26929;-84
2020/12/08 11:10:41;;;;;;;;;;;;;;;3.93;76.99;97541.66;1752205;80;24771;-82
2020/12/08 11:13:32;;;;;;;;;;;;;;;3.94;76.98;97540.72;1711754;82;20327;-84
2020/12/08 11:16:18;;;;;;;;;;;;;;;3.99;76.98;97540.83;1676737;84;24727;-83
2020/12/08 11:19:04;;;;;;;;;;;;;;;4.06;77.00;97538.72;1752848;80;22324;-84
2020/12/08 11:21:50;;;;;;;;;;;;;;;4.02;77.02;97539.37;1750545;80;26112;-83
2020/12/08 11:24:39;;;;;;;;;;;;;;;3.90;77.04;97538.78;1703997;82;24450;-83
2020/12/08 11:27:25;;;;;;;;;;;;;;;3.75;77.05;97543.08;1682007;82;20270;-84
2020/12/08 11:30:12;;;;;;;;;;;;;;;3.61;77.03;97545.59;1722676;82;24861;-84
2020/12/08 11:32:59;;;;;;;;;;;;;;;3.46;77.03;97545.17;1721982;82;22316;-83
2020/12/08 11:35:45;;;;;;;;;;;;;;;3.35;77.04;97543.62;1753140;80;26078;-83
2020/12/08 11:38:33;;;;;;;;;;;;;;;3.28;77.03;97549.59;1747840;80;24121;-84
2020/12/08 11:41:19;;;;;;;;;;;;;;;3.30;77.02;97556.81;1760415;80;20310;-83
2020/12/08 11:44:06;;;;;;;;;;;;;;;3.33;77.06;97561.81;1761881;80;24837;-84
2020/12/08 11:46:55;;;;;;;;;;;;;;;3.32;77.08;97557.58;1763329;80;22166;-83
2020/12/08 11:49:43;;;;;;;;;;;;;;;3.22;77.14;97558.14;1759735;80;25937;-83
2020/12/08 11:52:29;;;;;;;;;;;;;;;3.11;77.19;97560.50;1744498;80;24642;-84
2020/12/08 11:55:17;;;;;;;;;;;;;;;3.06;77.22;97560.72;1744892;80;20227;-83
2020/12/08 11:58:04;;;;;;;;;;;;;;;3.03;77.25;97567.81;1751160;80;24706;-83
2020/12/08 12:00:50;;;;;;;;;;;;;;;2.98;77.29;97564.64;1749791;80;22214;-83
2020/12/08 12:03:37;;;;;;;;;;;;;;;2.93;77.33;97563.60;1751927;80;25457;-83
2020/12/08 12:06:24;;;;;;;;;;;;;;;2.89;77.40;97564.69;1756525;80;25564;-84
2020/12/08 12:09:12;;;;;;;;;;;;;;;2.85;77.46;97561.41;1748716;80;20177;-83
2020/12/08 12:11:59;;;;;;;;;;;;;;;2.77;77.51;97559.70;1724653;82;24734;-84
2020/12/08 12:14:45;;;;;;;;;;;;;;;2.69;77.56;97563.59;1758960;80;22342;-83
2020/12/08 12:17:31;;;;;;;;;;;;;;;2.63;77.60;97551.83;1736683;80;26120;-83
2020/12/08 12:20:18;;;;;;;;;;;;;;;2.59;77.63;97558.08;1749844;80;24628;-83
2020/12/08 12:23:05;;;;;;;;;;;;;;;2.55;77.69;97559.16;1755936;80;20593;-83
2020/12/08 12:25:51;;;;;;;;;;;;;;;2.52;77.74;97559.30;1751318;80;24735;-83
2020/12/08 12:28:38;;;;;;;;;;;;;;;2.48;77.81;97555.21;1761192;80;22084;-83
2020/12/08 12:31:24;;;;;;;;;;;;;;;2.50;77.86;97557.27;1758089;80;26355;-86
2020/12/08 12:34:11;;;;;;;;;;;;;;;2.52;77.91;97558.84;1751862;80;24637;-86
2020/12/08 12:37:02;;;;;;;;;;;;;;;2.51;78.00;97552.45;1719876;81;20339;-85
2020/12/08 12:39:49;;;;;;;;;;;;;;;2.44;78.05;97558.42;1745131;80;24603;-86
2020/12/08 12:42:35;;;;;;;;;;;;;;;2.40;78.10;97556.08;1713829;83;22120;-86
2020/12/08 12:45:21;;;;;;;;;;;;;;;2.39;78.12;97555.69;1667748;83;26013;-86
2020/12/08 12:48:08;;;;;;;;;;;;;;;2.37;78.20;97560.92;1750521;81;25626;-86
2020/12/08 12:50:54;;;;;;;;;;;;;;;2.32;78.23;97570.66;1753671;81;20546;-86
2020/12/08 12:53:41;;;;;;;;;;;;;;;2.28;78.27;97574.77;1726240;81;24362;-86
2020/12/08 12:56:28;;;;;;;;;;;;;;;2.21;78.32;97572.94;1753942;81;22147;-85
2020/12/08 12:59:14;;;;;;;;;;;;;;;2.17;78.35;97573.17;1767301;81;26118;-85
2020/12/08 13:02:01;;;;;;;;;;;;;;;2.09;78.38;97580.84;1760079;81;24624;-85
2020/12/08 13:04:47;;;;;;;;;;;;;;;2.00;78.43;97585.63;1767057;81;20557;-85
2020/12/08 13:07:27;;;;;;;;;;;;;;;1.91;78.48;97588.18;1765457;81;24906;-86
2020/12/08 13:10:14;;;;;;;;;;;;;;;1.83;78.49;97593.34;1748377;81;22126;-84
2020/12/08 13:13:00;;;;;;;;;;;;;;;1.76;78.53;97597.12;1759037;81;26126;-84
2020/12/08 13:15:46;;;;;;;;;;;;;;;1.69;78.55;97590.96;1749064;81;24786;-84
2020/12/08 13:18:31;;;;;;;;;;;;;;;1.67;78.59;97590.22;1755777;81;20510;-83
2020/12/08 13:21:19;;;;;;;;;;;;;;;1.68;78.62;97591.06;1704587;83;24874;-84
2020/12/08 13:24:08;;;;;;;;;;;;;;;1.72;78.67;97590.45;1760280;81;22136;-84
2020/12/08 13:26:56;;;;;;;;;;;;;;;1.75;78.69;97591.13;1758310;81;26115;-83
2020/12/08 13:29:42;;;;;;;;;;;;;;;1.80;78.76;97593.51;1749446;81;25555;-84
2020/12/08 13:32:29;;;;;;;;;;;;;;;1.83;78.79;97585.61;1759062;81;20298;-83
2020/12/08 13:35:16;;;;;;;;;;;;;;;1.88;78.84;97586.22;1734812;81;25364;-84
2020/12/08 13:38:03;;;;;;;;;;;;;;;1.90;78.89;97591.70;1748434;81;22158;-84
2020/12/08 13:40:49;;;;;;;;;;;;;;;1.91;78.93;97584.31;1728111;82;26582;-84
2020/12/08 13:43:37;;;;;;;;;;;;;;;1.88;78.99;97586.22;1738330;81;24465;-84
2020/12/08 13:46:23;;;;;;;;;;;;;;;1.86;79.02;97587.57;1749528;81;20531;-83
2020/12/08 13:49:10;;;;;;;;;;;;;;;1.78;79.06;97592.28;1729653;81;24167;-83
2020/12/08 13:51:56;;;;;;;;;;;;;;;1.66;79.09;97589.83;1748931;81;21344;-84
2020/12/08 13:54:42;;;;;;;;;;;;;;;1.62;79.11;97588.77;1754511;81;26132;-84
2020/12/08 13:57:29;;;;;;;;;;;;;;;1.64;79.12;97588.22;1735874;81;24398;-83
2020/12/08 14:00:15;;;;;;;;;;;;;;;1.64;79.13;97594.67;1739172;82;20340;-84
2020/12/08 14:03:03;;;;;;;;;;;;;;;1.65;79.17;97601.50;1683877;84;25631;-84
2020/12/08 14:05:53;;;;;;;;;;;;;;;1.66;79.20;97605.75;1719416;83;23383;-83
2020/12/08 14:08:38;;;;;;;;;;;;;;;1.69;79.23;97600.47;1708713;83;26354;-83
2020/12/08 14:11:25;;;;;;;;;;;;;;;1.70;79.27;97600.83;1673788;84;24586;-83
2020/12/08 14:14:12;;;;;;;;;;;;;;;1.75;79.30;97609.17;1715537;83;20308;-83
2020/12/08 14:16:58;;;;;;;;;;;;;;;1.78;79.35;97609.05;1707772;83;24844;-84
2020/12/08 14:19:32;;;;;;;;;;;;;;;1.76;79.38;97608.27;1715758;83;22140;-84
2020/12/08 14:22:22;;;;;;;;;;;;;;;1.68;79.42;97603.95;1712689;83;26166;-84
2020/12/08 14:25:10;;;;;;;;;;;;;;;1.64;79.42;97608.40;1710067;82;24784;-84
2020/12/08 14:27:57;;;;;;;;;;;;;;;1.60;79.45;97613.78;1712334;83;20471;-83
2020/12/08 14:30:43;;;;;;;;;;;;;;;1.57;79.46;97612.65;1705541;83;23975;-83
2020/12/08 14:33:31;;;;;;;;;;;;;;;1.53;79.48;97614.97;1715106;83;22180;-84
2020/12/08 14:36:17;;;;;;;;;;;;;;;1.49;79.48;97619.44;1718072;83;27023;-83
2020/12/08 14:39:03;;;;;;;;;;;;;;;1.39;79.51;97619.48;1698046;84;25488;-83
2020/12/08 14:41:50;;;;;;;;;;;;;;;1.39;79.53;97622.52;1664970;84;20324;-84
2020/12/08 14:44:36;;;;;;;;;;;;;;;1.35;79.55;97616.68;1735143;81;24695;-83
2020/12/08 14:47:11;;;;;;;;;;;;;;;1.34;79.56;97624.02;1740969;81;22395;-84
2020/12/08 14:49:58;;;;;;;;;;;;;;;1.32;79.57;97624.98;1738219;81;26551;-84
2020/12/08 14:52:45;;;;;;;;;;;;;;;1.28;79.62;97624.75;1713999;81;24431;-84